createdAt,value
2017-09-30T00:01:37.149Z,35.50
2017-09-30T00:03:48.447Z,36.50
2017-09-30T00:05:55.161Z,33.67
2017-09-30T00:08:01.438Z,32.33
2017-09-30T00:10:09.365Z,30.60
2017-09-30T00:12:20.386Z,30.87
2017-09-30T00:14:27.878Z,28.70
2017-09-30T00:16:35.787Z,29.40
2017-09-30T00:18:42.018Z,30.47
2017-09-30T00:20:47.899Z,27.70
2017-09-30T00:22:54.056Z,27.53
2017-09-30T00:25:00.200Z,25.80
2017-09-30T00:27:06.951Z,27.07
2017-09-30T00:29:14.125Z,27.53
2017-09-30T00:31:20.082Z,25.27
2017-09-30T00:33:26.994Z,25.27
2017-09-30T00:35:37.233Z,24.67
2017-09-30T00:37:45.426Z,23.70
2017-09-30T00:39:55.036Z,25.03
2017-09-30T00:42:02.908Z,23.10
2017-09-30T00:44:09.424Z,22.40
2017-09-30T00:46:16.068Z,22.67
2017-09-30T00:48:24.942Z,21.70
2017-09-30T00:50:33.008Z,20.90
2017-09-30T00:52:41.758Z,22.53
2017-09-30T00:54:47.919Z,20.90
2017-09-30T00:56:56.204Z,20.93
2017-09-30T00:59:04.291Z,22.83
2017-09-30T01:01:12.652Z,22.80
2017-09-30T01:03:19.961Z,20.67
2017-09-30T01:05:26.865Z,19.67
2017-09-30T01:07:42.071Z,19.83
2017-09-30T01:09:48.412Z,19.13
2017-09-30T01:12:08.632Z,20.23
2017-09-30T01:14:17.323Z,19.70
2017-09-30T01:16:24.323Z,18.07
2017-09-30T01:18:33.169Z,18.80
2017-09-30T01:20:43.859Z,20.83
2017-09-30T01:22:49.552Z,21.20
2017-09-30T01:24:55.636Z,20.50
2017-09-30T01:27:01.819Z,20.77
2017-09-30T01:31:40.501Z,19.73
2017-09-30T01:33:49.390Z,19.70
2017-09-30T01:35:55.757Z,19.27
2017-09-30T01:38:03.456Z,19.13
2017-09-30T01:40:09.502Z,19.37
2017-09-30T01:42:15.401Z,18.90
2017-09-30T01:44:23.755Z,18.87
2017-09-30T01:46:30.287Z,20.33
2017-09-30T01:48:39.568Z,19.80
2017-09-30T01:50:45.179Z,18.47
2017-09-30T01:52:51.067Z,18.50
2017-09-30T01:54:56.758Z,21.17
2017-09-30T01:57:02.672Z,19.90
2017-09-30T01:59:08.847Z,18.37
2017-09-30T02:01:18.979Z,18.57
2017-09-30T02:03:25.382Z,19.30
2017-09-30T02:05:33.202Z,17.20
2017-09-30T02:07:39.710Z,18.80
2017-09-30T02:09:46.993Z,18.37
2017-09-30T02:12:09.099Z,17.80
2017-09-30T02:14:18.749Z,17.57
2017-09-30T02:16:24.120Z,18.53
2017-09-30T02:18:32.958Z,18.27
2017-09-30T02:20:40.065Z,18.50
2017-09-30T02:22:46.254Z,17.90
2017-09-30T02:24:51.763Z,18.60
2017-09-30T02:26:59.409Z,18.83
2017-09-30T02:29:05.687Z,19.13
2017-09-30T02:31:13.715Z,18.83
2017-09-30T02:33:21.038Z,18.57
2017-09-30T02:35:28.237Z,19.87
2017-09-30T02:37:36.613Z,18.30
2017-09-30T02:39:43.435Z,19.00
2017-09-30T02:41:49.490Z,18.53
2017-09-30T02:43:55.791Z,19.97
2017-09-30T02:46:01.657Z,19.60
2017-09-30T02:48:08.260Z,21.07
2017-09-30T02:50:15.184Z,19.83
2017-09-30T02:52:23.065Z,19.10
2017-09-30T02:54:29.331Z,19.40
2017-09-30T02:56:38.443Z,20.07
2017-09-30T02:58:47.751Z,17.97
2017-09-30T03:00:57.188Z,18.87
2017-09-30T03:03:03.032Z,18.80
2017-09-30T03:05:09.676Z,18.90
2017-09-30T03:07:15.816Z,20.10
2017-09-30T03:09:21.970Z,18.60
2017-09-30T03:11:30.153Z,19.60
2017-09-30T03:13:36.876Z,20.87
2017-09-30T03:15:42.756Z,20.30
2017-09-30T03:17:48.865Z,20.63
2017-09-30T03:19:54.985Z,18.90
2017-09-30T03:22:01.469Z,21.20
2017-09-30T03:24:08.462Z,19.40
2017-09-30T03:26:16.163Z,20.10
2017-09-30T03:28:23.442Z,19.10
2017-09-30T03:30:33.928Z,19.47
2017-09-30T03:32:40.903Z,19.30
2017-09-30T03:34:47.307Z,20.10
2017-09-30T03:36:55.982Z,19.10
2017-09-30T03:39:02.479Z,18.63
2017-09-30T03:41:09.339Z,18.70
2017-09-30T03:43:17.315Z,17.27
2017-09-30T03:45:28.546Z,18.83
2017-09-30T03:47:35.088Z,17.77
2017-09-30T03:49:41.183Z,17.10
2017-09-30T03:51:48.112Z,19.10
2017-09-30T03:53:56.160Z,17.80
2017-09-30T03:56:03.808Z,25.20
2017-09-30T03:58:12.192Z,18.87
2017-09-30T04:00:19.430Z,18.50
2017-09-30T04:02:26.470Z,18.70
2017-09-30T04:04:35.718Z,19.70
2017-09-30T04:06:44.002Z,18.07
2017-09-30T04:08:49.934Z,16.30
2017-09-30T04:10:55.488Z,18.80
2017-09-30T04:13:02.149Z,17.83
2017-09-30T04:15:10.238Z,16.97
2017-09-30T04:17:15.883Z,18.40
2017-09-30T04:19:24.259Z,17.90
2017-09-30T04:21:29.862Z,17.50
2017-09-30T04:23:36.194Z,19.80
2017-09-30T04:25:42.964Z,20.40
2017-09-30T04:27:50.255Z,17.93
2017-09-30T04:29:56.573Z,19.30
2017-09-30T04:32:03.303Z,18.90
2017-09-30T04:34:09.503Z,19.17
2017-09-30T04:36:24.397Z,18.57
2017-09-30T04:38:34.892Z,18.40
2017-09-30T04:40:41.092Z,19.30
2017-09-30T04:42:48.373Z,19.30
2017-09-30T04:44:58.565Z,21.60
2017-09-30T04:47:09.683Z,19.00
2017-09-30T04:49:17.703Z,19.13
2017-09-30T04:51:26.101Z,18.23
2017-09-30T04:53:39.081Z,20.40
2017-09-30T04:55:46.206Z,19.63
2017-09-30T04:57:52.630Z,18.80
2017-09-30T05:00:01.217Z,20.10
2017-09-30T05:02:07.059Z,18.10
2017-09-30T05:04:13.307Z,17.40
2017-09-30T05:06:20.071Z,18.50
2017-09-30T05:08:28.808Z,19.07
2017-09-30T05:10:37.021Z,20.50
2017-09-30T05:12:45.769Z,19.50
2017-09-30T05:14:54.042Z,18.70
2017-09-30T05:17:08.209Z,18.37
2017-09-30T05:19:14.674Z,21.43
2017-09-30T05:21:22.211Z,517.50
2017-09-30T05:23:28.876Z,287.60
2017-09-30T05:25:37.918Z,265.17
2017-09-30T05:27:44.640Z,116.20
2017-09-30T05:29:51.462Z,76.40
2017-09-30T05:31:57.935Z,58.17
2017-09-30T05:34:04.272Z,46.80
2017-09-30T05:36:10.594Z,42.50
2017-09-30T05:38:16.734Z,39.73
2017-09-30T05:40:23.334Z,35.47
2017-09-30T05:42:35.817Z,269.70
2017-09-30T05:44:41.781Z,316.83
2017-09-30T05:46:49.567Z,241.80
2017-09-30T05:48:57.133Z,144.60
2017-09-30T05:51:03.365Z,133.40
2017-09-30T05:53:09.363Z,100.93
2017-09-30T05:55:18.298Z,84.50
2017-09-30T05:57:25.532Z,58.10
2017-09-30T05:59:33.557Z,53.33
2017-09-30T06:01:40.678Z,51.03
2017-09-30T06:03:47.421Z,44.37
2017-09-30T06:05:58.427Z,40.90
2017-09-30T06:08:06.523Z,160.07
2017-09-30T06:10:12.107Z,385.43
2017-09-30T06:12:18.242Z,173.33
2017-09-30T06:14:24.992Z,105.97
2017-09-30T06:16:34.705Z,115.20
2017-09-30T06:18:40.987Z,115.13
2017-09-30T06:20:48.095Z,132.50
2017-09-30T06:22:54.082Z,93.77
2017-09-30T06:24:59.815Z,70.23
2017-09-30T06:27:06.503Z,202.13
2017-09-30T06:29:11.762Z,125.07
2017-09-30T06:31:20.308Z,215.50
2017-09-30T06:33:28.799Z,85.53
2017-09-30T06:35:36.675Z,48.63
2017-09-30T06:37:44.654Z,41.37
2017-09-30T06:40:01.609Z,39.93
2017-09-30T06:42:09.544Z,35.07
2017-09-30T06:44:19.243Z,33.33
2017-09-30T06:46:31.040Z,30.57
2017-09-30T06:48:48.635Z,31.70
2017-09-30T06:50:56.967Z,30.33
2017-09-30T06:53:06.942Z,179.50
2017-09-30T06:55:16.280Z,570.10
2017-09-30T06:57:22.199Z,176.20
2017-09-30T06:59:29.844Z,354.73
2017-09-30T07:01:38.531Z,499.23
2017-09-30T07:03:44.650Z,136.10
2017-09-30T07:05:53.385Z,124.73
2017-09-30T07:08:02.090Z,80.57
2017-09-30T07:10:11.785Z,73.90
2017-09-30T07:12:36.762Z,57.30
2017-09-30T07:14:42.551Z,48.93
2017-09-30T07:16:48.122Z,394.67
2017-09-30T07:18:53.784Z,166.00
2017-09-30T07:20:59.286Z,526.60
2017-09-30T07:23:06.826Z,132.47
2017-09-30T07:25:16.422Z,161.00
2017-09-30T07:27:26.850Z,130.50
2017-09-30T07:29:35.719Z,91.73
2017-09-30T07:31:43.974Z,69.57
2017-09-30T07:33:57.379Z,90.57
2017-09-30T07:36:07.644Z,75.07
2017-09-30T07:38:14.308Z,60.37
2017-09-30T07:40:20.926Z,51.53
2017-09-30T07:42:28.444Z,52.00
2017-09-30T07:44:39.841Z,229.67
2017-09-30T07:46:47.620Z,522.80
2017-09-30T07:48:53.920Z,570.37
2017-09-30T07:51:00.154Z,224.07
2017-09-30T07:53:08.562Z,122.13
2017-09-30T07:55:21.602Z,74.47
2017-09-30T07:57:28.422Z,969.43
2017-09-30T07:59:40.190Z,110.43
2017-09-30T08:01:48.319Z,772.10
2017-09-30T08:06:26.301Z,508.67
2017-09-30T08:08:34.875Z,127.57
2017-09-30T08:10:44.674Z,62.03
2017-09-30T08:12:52.974Z,433.90
2017-09-30T08:15:00.845Z,84.57
2017-09-30T08:17:09.136Z,89.73
2017-09-30T08:19:20.970Z,176.50
2017-09-30T08:21:29.387Z,70.57
2017-09-30T08:23:41.605Z,50.30
2017-09-30T08:25:49.478Z,39.57
2017-09-30T08:27:56.780Z,31.20
2017-09-30T08:30:03.948Z,26.27
2017-09-30T08:32:13.098Z,23.87
2017-09-30T08:34:23.285Z,24.47
2017-09-30T08:36:30.000Z,25.27
2017-09-30T08:38:40.256Z,24.63
2017-09-30T08:40:47.036Z,26.53
2017-09-30T08:42:54.895Z,23.73
2017-09-30T08:45:01.639Z,24.10
2017-09-30T08:47:09.808Z,24.20
2017-09-30T08:49:16.817Z,27.67
2017-09-30T08:51:24.320Z,24.43
2017-09-30T08:53:32.870Z,23.50
2017-09-30T08:55:39.924Z,24.27
2017-09-30T08:57:46.740Z,25.87
2017-09-30T08:59:56.824Z,22.10
2017-09-30T09:02:04.708Z,22.70
2017-09-30T09:04:12.174Z,23.03
2017-09-30T09:06:18.653Z,23.27
2017-09-30T09:08:25.220Z,22.67
2017-09-30T09:10:32.464Z,21.33
2017-09-30T09:12:40.028Z,22.10
2017-09-30T09:14:45.582Z,21.17
2017-09-30T09:16:54.734Z,21.13
2017-09-30T09:19:02.483Z,22.70
2017-09-30T09:21:08.251Z,22.87
2017-09-30T09:23:14.548Z,22.80
2017-09-30T09:25:21.270Z,21.77
2017-09-30T09:27:27.621Z,22.70
2017-09-30T09:29:39.427Z,22.60
2017-09-30T09:31:45.195Z,25.47
2017-09-30T09:33:50.849Z,26.10
2017-09-30T09:35:56.700Z,23.70
2017-09-30T09:38:03.217Z,22.13
2017-09-30T09:40:09.813Z,22.23
2017-09-30T09:42:17.850Z,25.90
2017-09-30T09:44:28.211Z,19.77
2017-09-30T09:46:44.398Z,24.73
2017-09-30T09:48:53.878Z,24.13
2017-09-30T09:51:00.156Z,22.93
2017-09-30T09:53:06.983Z,20.00
2017-09-30T09:55:13.095Z,21.27
2017-09-30T09:57:19.189Z,19.57
2017-09-30T09:59:25.817Z,21.37
2017-09-30T10:01:32.523Z,22.77
2017-09-30T10:03:39.024Z,21.33
2017-09-30T10:05:45.039Z,21.20
2017-09-30T10:07:50.962Z,21.27
2017-09-30T10:09:56.841Z,23.30
2017-09-30T10:12:02.342Z,23.40
2017-09-30T10:14:08.924Z,22.07
2017-09-30T10:16:15.201Z,19.43
2017-09-30T10:18:23.331Z,18.83
2017-09-30T10:20:30.096Z,18.63
2017-09-30T10:22:36.232Z,19.50
2017-09-30T10:24:42.145Z,22.43
2017-09-30T10:26:47.681Z,22.60
2017-09-30T10:28:53.284Z,21.80
2017-09-30T10:30:59.274Z,22.33
2017-09-30T10:33:05.018Z,20.30
2017-09-30T10:35:12.109Z,21.47
2017-09-30T10:37:18.452Z,20.40
2017-09-30T10:39:26.396Z,20.80
2017-09-30T10:41:35.566Z,19.93
2017-09-30T10:43:42.574Z,21.07
2017-09-30T10:45:49.031Z,20.23
2017-09-30T10:47:57.266Z,16.77
2017-09-30T10:50:03.460Z,20.57
2017-09-30T10:52:13.295Z,19.13
2017-09-30T10:54:20.137Z,18.90
2017-09-30T10:56:33.332Z,18.33
2017-09-30T10:58:40.900Z,18.20
2017-09-30T11:00:49.767Z,18.03
2017-09-30T11:02:56.608Z,18.00
2017-09-30T11:05:06.181Z,17.93
2017-09-30T11:07:13.965Z,18.57
2017-09-30T11:09:22.207Z,18.47
2017-09-30T11:11:28.937Z,19.13
2017-09-30T11:13:35.069Z,17.63
2017-09-30T11:15:42.598Z,110.37
2017-09-30T11:17:48.417Z,330.07
2017-09-30T11:19:55.464Z,329.40
2017-09-30T11:22:01.564Z,438.50
2017-09-30T11:24:08.077Z,299.17
2017-09-30T11:26:14.450Z,210.70
2017-09-30T11:28:32.408Z,151.03
2017-09-30T11:30:40.209Z,139.40
2017-09-30T11:32:50.354Z,107.70
2017-09-30T11:35:00.305Z,999.90
2017-09-30T11:37:13.454Z,428.57
2017-09-30T11:39:32.015Z,552.80
2017-09-30T11:41:49.741Z,339.60
2017-09-30T11:44:05.353Z,162.40
2017-09-30T11:46:12.432Z,149.07
2017-09-30T11:48:28.275Z,134.93
2017-09-30T11:50:39.586Z,90.30
2017-09-30T11:52:47.592Z,98.03
2017-09-30T11:54:56.270Z,110.53
2017-09-30T11:57:02.379Z,100.00
2017-09-30T11:59:15.023Z,83.57
2017-09-30T12:01:23.610Z,74.00
2017-09-30T12:03:31.379Z,63.77
2017-09-30T12:05:38.442Z,59.10
2017-09-30T12:07:48.415Z,49.83
2017-09-30T12:10:01.917Z,51.20
2017-09-30T12:12:10.857Z,43.43
2017-09-30T12:14:21.508Z,42.10
2017-09-30T12:16:32.895Z,33.10
2017-09-30T12:18:40.680Z,35.30
2017-09-30T12:20:47.544Z,28.77
2017-09-30T12:22:53.256Z,28.00
2017-09-30T12:25:01.176Z,20.17
2017-09-30T12:27:06.987Z,20.57
2017-09-30T12:29:16.250Z,21.80
2017-09-30T12:31:26.485Z,18.97
2017-09-30T12:34:00.736Z,19.23
2017-09-30T12:36:14.635Z,18.90
2017-09-30T12:38:31.673Z,17.00
2017-09-30T12:40:43.572Z,16.13
2017-09-30T12:42:56.040Z,16.37
2017-09-30T12:45:05.568Z,16.73
2017-09-30T12:47:17.927Z,15.07
2017-09-30T12:49:29.947Z,15.57
2017-09-30T12:51:40.905Z,15.50
2017-09-30T12:53:51.261Z,13.60
2017-09-30T12:55:58.372Z,15.63
2017-09-30T12:58:07.725Z,14.43
2017-09-30T13:00:14.659Z,14.53
2017-09-30T13:02:21.302Z,14.37
2017-09-30T13:04:27.160Z,15.03
2017-09-30T13:06:39.992Z,14.70
2017-09-30T13:08:47.214Z,14.27
2017-09-30T13:10:53.094Z,14.17
2017-09-30T13:12:59.553Z,15.13
2017-09-30T13:15:10.011Z,13.40
2017-09-30T13:17:18.082Z,12.87
2017-09-30T13:19:25.648Z,13.63
2017-09-30T13:21:42.211Z,12.97
2017-09-30T13:23:49.733Z,13.47
2017-09-30T13:25:59.646Z,12.60
2017-09-30T13:28:13.163Z,13.30
2017-09-30T13:30:21.180Z,13.30
2017-09-30T13:32:30.957Z,14.33
2017-09-30T13:34:39.559Z,12.33
2017-09-30T13:37:10.368Z,12.67
2017-09-30T13:39:27.607Z,11.90
2017-09-30T13:41:46.031Z,12.90
2017-09-30T13:44:01.976Z,12.53
2017-09-30T13:46:08.858Z,12.17
2017-09-30T13:48:32.178Z,12.30
2017-09-30T13:50:44.108Z,269.27
2017-09-30T13:52:51.618Z,385.77
2017-09-30T13:55:02.671Z,328.13
2017-09-30T13:57:15.436Z,154.93
2017-09-30T13:59:28.539Z,116.17
2017-09-30T14:03:58.258Z,46.97
2017-09-30T14:06:13.685Z,46.77
2017-09-30T14:08:21.437Z,34.57
2017-09-30T14:10:30.618Z,28.70
2017-09-30T14:12:43.194Z,22.60
2017-09-30T14:14:56.784Z,18.73
2017-09-30T14:17:03.202Z,15.40
2017-09-30T14:19:10.958Z,16.30
2017-09-30T14:21:21.993Z,16.33
2017-09-30T14:23:44.135Z,15.97
2017-09-30T14:26:00.167Z,15.53
2017-09-30T14:28:06.987Z,15.10
2017-09-30T14:30:22.693Z,13.53
2017-09-30T14:34:53.251Z,205.90
2017-09-30T14:37:05.021Z,415.80
2017-09-30T14:39:12.045Z,306.10
2017-09-30T14:41:22.907Z,186.83
2017-09-30T14:43:39.027Z,146.33
2017-09-30T14:45:46.542Z,92.90
2017-09-30T14:47:53.229Z,70.50
2017-09-30T14:50:04.041Z,57.13
2017-09-30T14:52:11.334Z,51.70
2017-09-30T14:54:19.149Z,44.37
2017-09-30T14:56:25.729Z,41.73
2017-09-30T14:58:33.044Z,37.90
2017-09-30T15:00:43.300Z,38.90
2017-09-30T15:02:54.816Z,32.27
2017-09-30T15:05:09.733Z,32.00
2017-09-30T15:07:17.880Z,26.00
2017-09-30T15:09:28.947Z,26.37
2017-09-30T15:11:35.374Z,22.93
2017-09-30T15:13:46.309Z,23.80
2017-09-30T15:15:52.439Z,656.43
2017-09-30T15:17:58.021Z,750.23
2017-09-30T15:20:04.831Z,478.23
2017-09-30T15:22:15.584Z,326.30
2017-09-30T15:24:26.170Z,211.17
2017-09-30T15:26:33.813Z,468.47
2017-09-30T15:28:41.449Z,592.13
2017-09-30T15:30:49.880Z,725.30
2017-09-30T15:32:58.034Z,619.60
2017-09-30T15:35:05.629Z,851.63
2017-09-30T15:37:14.815Z,136.67
2017-09-30T15:39:23.983Z,74.83
2017-09-30T15:41:33.604Z,275.03
2017-09-30T15:43:43.997Z,109.63
2017-09-30T15:45:51.847Z,48.47
2017-09-30T15:48:00.868Z,42.97
2017-09-30T15:50:11.632Z,40.00
2017-09-30T15:54:38.022Z,29.90
2017-09-30T15:56:45.332Z,28.13
2017-09-30T15:58:53.630Z,331.10
2017-09-30T16:01:00.233Z,636.03
2017-09-30T16:03:10.608Z,236.97
2017-09-30T16:05:19.413Z,106.07
2017-09-30T16:07:31.430Z,100.97
2017-09-30T16:09:38.724Z,797.23
2017-09-30T16:11:46.515Z,520.30
2017-09-30T16:13:52.803Z,82.23
2017-09-30T16:15:58.960Z,38.90
2017-09-30T16:18:07.194Z,22.20
2017-09-30T16:20:13.205Z,19.43
2017-09-30T16:22:19.384Z,17.70
2017-09-30T16:24:29.489Z,19.73
2017-09-30T16:26:41.575Z,18.20
2017-09-30T16:28:48.895Z,21.13
2017-09-30T16:30:56.095Z,276.37
2017-09-30T16:33:03.720Z,312.43
2017-09-30T16:35:10.587Z,346.07
2017-09-30T16:37:21.431Z,278.30
2017-09-30T16:39:36.699Z,188.57
2017-09-30T16:41:43.323Z,112.93
2017-09-30T16:43:52.044Z,94.67
2017-09-30T16:45:58.981Z,75.00
2017-09-30T16:48:06.526Z,107.37
2017-09-30T16:50:16.120Z,375.77
2017-09-30T16:52:23.084Z,419.47
2017-09-30T16:54:29.182Z,391.40
2017-09-30T16:56:42.875Z,303.50
2017-09-30T16:58:52.406Z,185.60
2017-09-30T17:01:00.577Z,123.43
2017-09-30T17:03:07.680Z,109.63
2017-09-30T17:05:15.145Z,113.57
2017-09-30T17:07:22.737Z,95.33
2017-09-30T17:09:29.688Z,81.50
2017-09-30T17:11:37.600Z,380.63
2017-09-30T17:13:43.699Z,503.60
2017-09-30T17:15:50.085Z,408.60
2017-09-30T17:17:55.929Z,267.10
2017-09-30T17:20:02.823Z,186.07
2017-09-30T17:22:09.894Z,123.17
2017-09-30T17:24:24.290Z,114.50
2017-09-30T17:26:33.032Z,95.97
2017-09-30T17:28:41.456Z,68.53
2017-09-30T17:30:48.397Z,73.40
2017-09-30T17:43:58.150Z,150.43
2017-09-30T17:46:05.784Z,122.47
2017-09-30T17:48:16.249Z,105.60
2017-09-30T17:52:59.848Z,72.20
2017-09-30T17:55:05.860Z,73.43
2017-09-30T17:57:14.391Z,56.27
2017-09-30T17:59:21.432Z,54.83
2017-09-30T18:01:28.524Z,51.00
2017-09-30T18:03:38.001Z,46.37
2017-09-30T18:05:48.732Z,590.40
2017-09-30T18:07:58.771Z,558.90
2017-09-30T18:10:08.972Z,583.30
2017-09-30T18:12:17.248Z,358.63
2017-09-30T18:14:27.908Z,296.80
2017-09-30T18:16:39.731Z,191.83
2017-09-30T18:18:49.335Z,173.70
2017-09-30T18:20:56.668Z,145.83
2017-09-30T18:23:03.784Z,109.63
2017-09-30T18:25:12.430Z,103.83
2017-09-30T18:27:21.655Z,99.17
2017-09-30T18:29:42.673Z,65.50
2017-09-30T18:32:03.263Z,77.90
2017-09-30T18:34:19.550Z,401.27
2017-09-30T18:36:35.890Z,665.67
2017-09-30T18:38:53.269Z,806.57
2017-09-30T18:41:06.528Z,320.73
2017-09-30T18:43:25.512Z,187.47
2017-09-30T18:46:19.418Z,380.97
2017-09-30T18:48:59.660Z,164.00
2017-09-30T18:56:38.217Z,605.50
2017-09-30T18:58:46.700Z,202.07
2017-09-30T19:00:53.723Z,327.37
2017-09-30T19:03:01.937Z,440.83
2017-09-30T19:05:11.525Z,346.70
2017-09-30T19:07:17.955Z,136.23
2017-09-30T19:09:30.604Z,309.90
2017-09-30T19:11:42.035Z,360.67
2017-09-30T19:13:50.471Z,34.93
2017-09-30T19:16:01.340Z,430.73
2017-09-30T19:18:13.657Z,312.20
2017-09-30T19:20:26.771Z,120.13
2017-09-30T19:22:50.831Z,55.70
2017-09-30T19:24:58.336Z,103.73
2017-09-30T19:27:07.084Z,83.47
2017-09-30T19:29:15.778Z,402.03
2017-09-30T19:31:34.573Z,429.43
2017-09-30T19:33:44.732Z,392.30
2017-09-30T19:35:53.485Z,371.57
2017-09-30T19:38:02.671Z,380.63
2017-09-30T19:40:13.545Z,307.87
2017-09-30T19:42:23.494Z,287.47
2017-09-30T19:44:32.032Z,232.93
2017-09-30T19:46:39.167Z,164.47
2017-09-30T19:48:49.692Z,185.87
2017-09-30T19:50:55.534Z,157.00
2017-09-30T19:53:01.794Z,156.60
2017-09-30T19:55:09.973Z,115.40
2017-09-30T19:57:15.964Z,114.17
2017-09-30T19:59:23.053Z,86.13
2017-09-30T20:01:29.412Z,84.93
2017-09-30T20:03:37.691Z,81.80
2017-09-30T20:05:45.004Z,83.90
2017-09-30T20:07:50.905Z,69.60
2017-09-30T20:09:56.893Z,68.73
2017-09-30T20:12:02.796Z,61.17
2017-09-30T20:14:09.273Z,453.73
2017-09-30T20:16:15.469Z,201.43
2017-09-30T20:18:22.496Z,318.07
2017-09-30T20:20:30.247Z,471.57
2017-09-30T20:22:37.267Z,253.57
2017-09-30T20:24:43.493Z,203.07
2017-09-30T20:26:53.000Z,109.50
2017-09-30T20:28:59.803Z,109.33
2017-09-30T20:31:11.628Z,61.37
2017-09-30T20:33:19.499Z,58.87
2017-09-30T20:35:28.304Z,31.30
2017-09-30T20:37:37.361Z,23.43
2017-09-30T20:39:50.696Z,18.47
2017-09-30T20:41:59.084Z,14.27
2017-09-30T20:44:06.588Z,12.57
2017-09-30T20:46:17.286Z,22.23
2017-09-30T20:48:25.028Z,20.57
2017-09-30T20:50:32.025Z,10.07
2017-09-30T20:52:41.482Z,7.30
2017-09-30T20:54:48.699Z,5.13
2017-09-30T20:56:57.930Z,108.03
2017-09-30T20:59:05.357Z,41.03
2017-09-30T21:01:15.522Z,9.70
2017-09-30T21:03:22.764Z,5.43
2017-09-30T21:05:34.451Z,3.30
2017-09-30T21:07:41.892Z,1.93
2017-09-30T21:09:50.153Z,2.33
2017-09-30T21:11:57.533Z,1.90
2017-09-30T21:14:04.298Z,1.90
2017-09-30T21:16:12.315Z,1.90
2017-09-30T21:18:18.895Z,1.93
2017-09-30T21:20:25.365Z,1.30
2017-09-30T21:22:32.066Z,1.50
2017-09-30T21:24:45.415Z,1.27
2017-09-30T21:26:53.421Z,1.20
2017-09-30T21:29:00.303Z,1.30
2017-09-30T21:31:11.343Z,1.23
2017-09-30T21:33:18.691Z,1.50
2017-09-30T21:35:28.497Z,0.93
2017-09-30T21:37:38.370Z,40.63
2017-09-30T21:39:45.145Z,151.07
2017-09-30T21:41:53.420Z,238.20
2017-09-30T21:44:05.465Z,205.03
2017-09-30T21:46:11.734Z,164.77
2017-09-30T21:48:19.338Z,158.93
2017-09-30T21:50:26.894Z,179.77
2017-09-30T21:52:35.232Z,129.73
2017-09-30T21:54:42.290Z,130.73
2017-09-30T21:56:48.631Z,89.83
2017-09-30T21:58:59.665Z,60.90
2017-09-30T22:01:12.588Z,56.37
2017-09-30T22:03:21.974Z,59.63
2017-09-30T22:05:30.161Z,131.27
2017-09-30T22:07:46.090Z,217.90
2017-09-30T22:10:12.380Z,85.20
2017-09-30T22:12:18.949Z,113.13
2017-09-30T22:14:27.312Z,248.40
2017-09-30T22:16:34.436Z,308.80
2017-09-30T22:18:39.929Z,274.00
2017-09-30T22:20:46.758Z,244.70
2017-09-30T22:22:53.479Z,185.67
2017-09-30T22:24:59.891Z,194.43
2017-09-30T22:27:05.490Z,129.40
2017-09-30T22:29:12.613Z,91.90
2017-09-30T22:31:18.924Z,68.77
2017-09-30T22:33:25.625Z,75.90
2017-09-30T22:35:32.785Z,88.50
2017-09-30T22:37:42.321Z,122.17
2017-09-30T22:39:48.262Z,459.33
2017-09-30T22:41:54.901Z,64.83
2017-09-30T22:44:01.266Z,51.70
2017-09-30T22:46:07.436Z,53.87
2017-09-30T22:48:13.818Z,37.33
2017-09-30T22:50:20.603Z,661.97
2017-09-30T22:52:28.212Z,480.10
2017-09-30T22:54:35.232Z,586.50
2017-09-30T22:56:42.683Z,396.87
2017-09-30T22:58:51.676Z,375.27
2017-09-30T23:00:58.211Z,413.23
2017-09-30T23:03:05.720Z,326.70
2017-09-30T23:05:13.637Z,305.87
2017-09-30T23:07:22.647Z,335.87
2017-09-30T23:09:33.145Z,363.80
2017-09-30T23:11:41.355Z,284.63
2017-09-30T23:13:54.360Z,293.00
2017-09-30T23:16:04.670Z,233.83
2017-09-30T23:18:11.049Z,209.53
2017-09-30T23:20:17.780Z,191.83
2017-09-30T23:22:23.733Z,175.67
2017-09-30T23:26:54.730Z,550.13
2017-09-30T23:29:04.006Z,668.87
2017-09-30T23:31:11.779Z,610.80
2017-09-30T23:33:21.206Z,528.20
2017-09-30T23:35:28.232Z,490.00
2017-09-30T23:37:34.198Z,400.67
2017-09-30T23:39:40.711Z,456.33
2017-09-30T23:41:47.323Z,274.33
2017-09-30T23:43:56.700Z,190.10
2017-09-30T23:46:02.396Z,133.87
2017-09-30T23:48:25.588Z,226.80
2017-09-30T23:50:32.384Z,268.57
2017-09-30T23:52:41.330Z,377.27
2017-09-30T23:54:52.407Z,327.30
2017-09-30T23:56:59.112Z,247.33
2017-09-30T23:59:06.922Z,148.00
